Time;durP1;ratioP1;P1;durP2;ratioP2;P2;SDS_P1;SDS_P2;PMS_P1;PMS_P2;Temp;Humidity;BMP_temperature;BMP_pressure;BME280_temperature;BME280_humidity;BME280_pressure;Samples;Min_cycle;Max_cycle;Signal;HPM_P1;HPM_P2
2023/05/01 00:01:57;;;;;;;2.47;0.82;;;6.00;99.90;;;;;;5109547;28;20044;-79
2023/05/01 00:04:25;;;;;;;2.30;0.98;;;6.00;99.90;;;;;;5086873;28;20116;-79
2023/05/01 00:06:52;;;;;;;1.42;1.33;;;5.80;99.90;;;;;;5091367;28;20052;-79
2023/05/01 00:09:19;;;;;;;1.30;1.05;;;5.80;99.90;;;;;;5107929;28;20122;-79
2023/05/01 00:11:48;;;;;;;1.75;1.00;;;5.70;99.90;;;;;;5113266;28;20055;-78
2023/05/01 00:14:15;;;;;;;1.30;1.20;;;5.60;99.90;;;;;;5112601;28;20035;-78
2023/05/01 00:16:42;;;;;;;1.08;1.05;;;5.50;99.90;;;;;;5112525;28;20051;-78
2023/05/01 00:19:11;;;;;;;2.13;1.60;;;5.40;99.90;;;;;;5075533;28;20054;-78
2023/05/01 00:21:39;;;;;;;1.67;1.50;;;5.30;99.90;;;;;;5112816;28;20048;-78
2023/05/01 00:24:06;;;;;;;1.83;1.10;;;5.30;99.90;;;;;;5107594;28;20044;-79
2023/05/01 00:26:33;;;;;;;1.20;1.08;;;5.40;99.90;;;;;;5111901;28;20053;-77
2023/05/01 00:29:02;;;;;;;1.27;1.17;;;5.40;99.90;;;;;;5099185;28;20511;-78
2023/05/01 00:31:29;;;;;;;1.27;1.17;;;5.40;99.90;;;;;;5091897;28;20048;-79
2023/05/01 00:33:57;;;;;;;2.08;1.45;;;5.40;99.90;;;;;;5109852;28;20150;-78
2023/05/01 00:36:24;;;;;;;3.40;1.60;;;5.40;99.90;;;;;;5103912;28;20056;-78
2023/05/01 00:38:51;;;;;;;3.38;1.95;;;5.40;99.90;;;;;;5111625;28;20580;-77
2023/05/01 00:41:20;;;;;;;2.05;1.30;;;5.30;99.90;;;;;;5092830;28;20044;-78
2023/05/01 00:43:47;;;;;;;2.45;1.63;;;5.30;99.90;;;;;;5098404;28;20040;-78
2023/05/01 00:46:16;;;;;;;5.47;2.20;;;5.30;99.90;;;;;;5110316;28;20130;-78
2023/05/01 00:48:44;;;;;;;2.80;1.60;;;5.30;99.90;;;;;;5110977;28;20073;-78
2023/05/01 00:51:14;;;;;;;1.92;1.65;;;5.40;99.90;;;;;;5104386;28;20514;-78
2023/05/01 00:53:41;;;;;;;3.03;1.75;;;5.40;99.90;;;;;;5106119;28;20048;-78
2023/05/01 00:56:09;;;;;;;3.03;1.90;;;5.50;99.90;;;;;;5099518;28;20035;-78
2023/05/01 00:58:37;;;;;;;2.42;2.00;;;5.50;99.90;;;;;;5106883;28;20539;-78
2023/05/01 01:01:05;;;;;;;2.10;1.80;;;5.50;99.90;;;;;;5111664;28;20051;-78
2023/05/01 01:03:33;;;;;;;3.83;1.77;;;5.40;99.90;;;;;;5093853;28;20106;-78
2023/05/01 01:06:21;;;;;;;2.30;1.75;;;5.30;99.90;;;;;;5106763;28;20054;-78
2023/05/01 01:08:59;;;;;;;3.53;1.83;;;5.20;99.90;;;;;;5113044;28;20674;-77
2023/05/01 01:11:34;;;;;;;4.35;2.30;;;5.20;99.90;;;;;;5103495;28;20051;-77
2023/05/01 01:14:11;;;;;;;2.42;2.15;;;5.10;99.90;;;;;;5111608;28;20051;-78
2023/05/01 01:16:45;;;;;;;2.95;1.60;;;5.10;99.90;;;;;;5111677;28;20074;-77
2023/05/01 01:19:42;;;;;;;3.15;1.88;;;5.00;99.90;;;;;;5082378;28;20044;-78
2023/05/01 01:22:14;;;;;;;2.90;1.88;;;5.10;99.90;;;;;;5089934;28;20142;-79
2023/05/01 01:25:00;;;;;;;2.90;2.03;;;5.20;99.90;;;;;;5105374;28;20050;-78
2023/05/01 01:27:48;;;;;;;5.03;2.17;;;5.20;99.90;;;;;;5110810;28;20604;-78
2023/05/01 01:30:37;;;;;;;2.28;2.08;;;5.30;99.90;;;;;;5101754;28;20039;-79
2023/05/01 01:33:24;;;;;;;5.68;2.72;;;5.30;99.90;;;;;;5097799;28;20055;-78
2023/05/01 01:35:57;;;;;;;1.90;1.63;;;5.40;99.90;;;;;;5080313;28;20044;-78
2023/05/01 01:38:29;;;;;;;;;;;5.40;99.90;;;;;;5105294;28;20056;-79
2023/05/01 01:41:00;;;;;;;2.45;1.80;;;5.40;99.90;;;;;;5095493;28;19923;-79
2023/05/01 01:43:38;;;;;;;4.53;2.00;;;5.40;99.90;;;;;;5107437;28;20055;-78
2023/05/01 01:46:08;;;;;;;6.70;2.10;;;5.50;99.90;;;;;;5075628;28;20052;-78
2023/05/01 01:48:39;;;;;;;3.97;2.00;;;5.50;99.90;;;;;;5107844;28;20123;-78
2023/05/01 01:51:11;;;;;;;2.53;2.33;;;5.40;99.90;;;;;;5096734;28;20047;-79
2023/05/01 01:53:40;;;;;;;5.07;2.38;;;5.40;99.90;;;;;;5105602;28;20055;-78
2023/05/01 01:56:09;;;;;;;3.50;2.35;;;5.40;99.90;;;;;;5097890;28;20051;-79
2023/05/01 01:58:39;;;;;;;3.17;2.42;;;5.40;99.90;;;;;;5108210;28;20043;-79
2023/05/01 02:01:08;;;;;;;2.10;1.98;;;5.40;99.90;;;;;;5081784;28;20071;-79
2023/05/01 02:03:38;;;;;;;5.78;2.25;;;5.30;99.90;;;;;;5092229;28;20046;-79
2023/05/01 02:06:08;;;;;;;3.13;2.28;;;5.30;99.90;;;;;;5085933;28;20131;-78
2023/05/01 02:08:37;;;;;;;2.58;2.13;;;5.30;99.90;;;;;;5096497;28;20044;-79
2023/05/01 02:11:06;;;;;;;3.58;2.63;;;5.30;99.90;;;;;;5087219;28;20051;-78
2023/05/01 02:13:33;;;;;;;2.30;2.10;;;5.30;99.90;;;;;;5103820;28;20079;-79
2023/05/01 02:16:24;;;;;;;4.57;2.28;;;5.30;99.90;;;;;;5089054;28;20048;-79
2023/05/01 02:18:53;;;;;;;4.43;2.28;;;5.30;99.90;;;;;;5089551;28;20078;-79
2023/05/01 02:21:22;;;;;;;3.75;2.35;;;5.40;99.90;;;;;;5097811;28;20055;-79
2023/05/01 02:23:49;;;;;;;3.88;2.97;;;5.30;99.90;;;;;;5107801;28;20135;-78
2023/05/01 02:26:18;;;;;;;3.40;2.72;;;5.40;99.90;;;;;;5087818;28;20067;-79
2023/05/01 02:28:46;;;;;;;3.15;2.55;;;5.50;99.90;;;;;;5107126;28;20173;-78
2023/05/01 02:31:13;;;;;;;2.10;1.92;;;5.60;99.90;;;;;;5085765;28;20130;-80
2023/05/01 02:33:41;;;;;;;2.30;2.20;;;5.60;99.90;;;;;;5104535;28;20094;-78
2023/05/01 02:36:09;;;;;;;2.72;2.53;;;5.60;99.90;;;;;;5094425;28;20084;-78
2023/05/01 02:38:38;;;;;;;5.00;2.63;;;5.70;99.90;;;;;;5108541;28;20131;-79
2023/05/01 02:41:08;;;;;;;4.28;2.00;;;5.70;99.90;;;;;;5094928;28;20044;-79
2023/05/01 02:43:38;;;;;;;3.55;2.20;;;5.70;99.90;;;;;;5106091;28;20108;-78
2023/05/01 02:46:09;;;;;;;5.15;2.10;;;5.70;99.90;;;;;;5104026;28;20070;-79
2023/05/01 02:48:38;;;;;;;2.90;2.10;;;5.70;99.90;;;;;;5091798;28;20043;-79
2023/05/01 02:51:07;;;;;;;2.80;2.30;;;5.80;99.90;;;;;;5100224;28;20043;-78
2023/05/01 02:53:35;;;;;;;2.00;1.70;;;5.80;99.90;;;;;;5109921;28;20114;-79
2023/05/01 02:56:13;;;;;;;2.03;1.73;;;5.90;99.90;;;;;;5105056;28;20592;-78
2023/05/01 02:58:40;;;;;;;6.53;1.63;;;6.00;99.90;;;;;;5109908;28;20486;-78
2023/05/01 03:01:08;;;;;;;1.88;1.77;;;6.10;99.90;;;;;;5089050;28;20046;-78
2023/05/01 03:03:36;;;;;;;1.70;1.60;;;6.10;99.90;;;;;;5108146;28;20047;-78
2023/05/01 03:06:03;;;;;;;1.67;1.58;;;6.20;99.90;;;;;;5107347;28;20138;-78
2023/05/01 03:08:31;;;;;;;1.90;1.80;;;6.20;99.90;;;;;;5108435;28;20063;-78
2023/05/01 03:10:58;;;;;;;1.50;1.40;;;6.20;99.90;;;;;;5107600;28;20048;-78
2023/05/01 03:13:26;;;;;;;1.88;1.65;;;6.20;99.90;;;;;;5101992;28;20047;-78
2023/05/01 03:15:54;;;;;;;1.70;1.30;;;6.30;99.90;;;;;;5114848;27;20043;-79
2023/05/01 03:18:21;;;;;;;1.40;1.30;;;6.30;99.90;;;;;;5107398;28;20431;-78
2023/05/01 03:20:52;;;;;;;2.40;1.83;;;6.40;99.90;;;;;;5093234;28;20048;-79
2023/05/01 03:23:20;;;;;;;3.38;1.40;;;6.40;99.90;;;;;;5087283;28;20051;-78
2023/05/01 03:25:47;;;;;;;4.45;1.88;;;6.50;99.90;;;;;;5107773;28;20040;-79
2023/05/01 03:28:15;;;;;;;3.47;1.40;;;6.50;99.90;;;;;;5121814;28;20052;-78
2023/05/01 03:30:44;;;;;;;3.05;1.60;;;6.60;99.90;;;;;;5075423;28;20052;-79
2023/05/01 03:33:11;;;;;;;3.33;1.45;;;6.70;99.90;;;;;;5106744;28;20096;-79
2023/05/01 03:35:39;;;;;;;3.28;1.52;;;6.90;99.90;;;;;;5105217;28;20100;-80
2023/05/01 03:38:06;;;;;;;1.90;1.70;;;6.90;99.90;;;;;;5098333;28;20040;-79
2023/05/01 03:40:59;;;;;;;;;;;6.90;99.90;;;;;;5095244;28;20075;-79
2023/05/01 03:43:59;;;;;;;3.72;2.38;;;6.90;99.90;;;;;;5098610;28;19923;-78
2023/05/01 03:46:43;;;;;;;1.83;1.70;;;6.80;99.90;;;;;;5097619;28;20052;-79
2023/05/01 03:49:19;;;;;;;2.03;1.40;;;6.60;99.90;;;;;;5106267;28;20587;-80
2023/05/01 03:51:48;;;;;;;1.63;1.45;;;6.40;99.90;;;;;;5111677;28;20051;-80
2023/05/01 03:54:16;;;;;;;2.38;1.58;;;6.30;99.90;;;;;;5089036;28;20048;-80
2023/05/01 03:57:09;;;;;;;4.72;1.92;;;6.30;99.90;;;;;;5101113;28;20052;-79
2023/05/01 03:59:37;;;;;;;1.80;1.70;;;6.20;99.90;;;;;;5106688;28;20043;-80
2023/05/01 04:02:06;;;;;;;1.80;1.50;;;6.20;99.90;;;;;;5112216;28;20036;-80
2023/05/01 04:04:36;;;;;;;2.63;1.35;;;6.20;99.90;;;;;;5101678;27;20522;-80
2023/05/01 04:07:03;;;;;;;1.83;1.15;;;6.20;99.90;;;;;;5077997;28;20051;-80
2023/05/01 04:09:31;;;;;;;2.70;1.10;;;6.40;99.90;;;;;;5107588;28;20448;-80
2023/05/01 04:11:58;;;;;;;1.90;1.70;;;6.40;99.90;;;;;;5103608;28;20043;-80
2023/05/01 04:14:27;;;;;;;2.85;2.05;;;6.60;99.90;;;;;;5099832;28;20058;-80
2023/05/01 04:16:55;;;;;;;2.03;1.80;;;6.80;99.90;;;;;;5110032;28;20039;-79
2023/05/01 04:19:23;;;;;;;4.28;2.13;;;6.80;99.90;;;;;;5094124;28;20043;-79
2023/05/01 04:21:57;;;;;;;3.65;2.25;;;7.00;99.90;;;;;;5109999;28;20040;-79
2023/05/01 04:24:26;;;;;;;2.25;2.15;;;7.00;99.90;;;;;;5095383;28;20043;-79
2023/05/01 04:26:54;;;;;;;5.43;2.10;;;7.10;99.90;;;;;;5111272;28;20078;-80
2023/05/01 04:29:22;;;;;;;3.03;1.85;;;7.10;99.90;;;;;;5109971;28;20048;-82
2023/05/01 04:31:49;;;;;;;4.15;2.35;;;7.10;99.90;;;;;;5081910;28;20117;-81
2023/05/01 04:34:17;;;;;;;2.47;1.60;;;7.20;99.90;;;;;;5091709;28;20146;-81
2023/05/01 04:36:46;;;;;;;4.65;2.03;;;7.40;99.90;;;;;;5112313;28;20462;-82
2023/05/01 04:39:14;;;;;;;4.93;2.28;;;7.50;99.90;;;;;;5108440;28;20942;-83
2023/05/01 04:41:41;;;;;;;2.22;1.80;;;7.50;99.90;;;;;;5110810;28;20040;-83
2023/05/01 04:44:09;;;;;;;1.80;1.70;;;7.60;99.90;;;;;;5109037;28;20054;-83
2023/05/01 04:46:36;;;;;;;3.15;2.13;;;7.70;99.90;;;;;;5110881;28;20067;-82
2023/05/01 04:49:04;;;;;;;3.15;1.88;;;7.70;99.90;;;;;;5104536;28;20112;-83
2023/05/01 04:51:31;;;;;;;1.95;1.85;;;7.80;99.90;;;;;;5104913;28;20053;-82
2023/05/01 04:54:02;;;;;;;3.22;2.13;;;7.90;99.90;;;;;;5088610;28;20177;-81
2023/05/01 04:56:29;;;;;;;2.80;1.73;;;8.10;99.90;;;;;;5106681;28;20062;-83
2023/05/01 04:59:01;;;;;;;2.75;2.03;;;8.20;99.90;;;;;;5107649;28;20132;-81
2023/05/01 05:01:31;;;;;;;2.38;1.60;;;8.40;99.90;;;;;;5103526;27;20423;-82
2023/05/01 05:03:58;;;;;;;2.55;1.52;;;8.40;99.90;;;;;;5109642;28;20050;-82
2023/05/01 05:06:25;;;;;;;1.95;1.58;;;8.40;99.90;;;;;;5102935;28;20425;-81
2023/05/01 05:08:54;;;;;;;2.85;1.55;;;8.40;99.90;;;;;;5109452;28;20054;-80
2023/05/01 05:11:23;;;;;;;1.70;1.60;;;8.30;99.90;;;;;;5093701;28;21945;-82
2023/05/01 05:14:03;;;;;;;1.48;1.38;;;8.30;99.90;;;;;;5105333;28;20049;-81
2023/05/01 05:16:31;;;;;;;1.48;1.20;;;8.30;99.90;;;;;;5099055;28;20514;-82
2023/05/01 05:18:58;;;;;;;2.28;1.52;;;8.40;99.90;;;;;;5105362;28;20048;-82
2023/05/01 05:21:28;;;;;;;1.50;1.38;;;8.60;99.90;;;;;;5109442;28;20048;-83
2023/05/01 05:23:58;;;;;;;2.47;1.55;;;8.80;99.90;;;;;;5079669;28;20125;-80
2023/05/01 05:26:27;;;;;;;2.33;1.35;;;8.90;99.90;;;;;;5088113;28;20050;-80
2023/05/01 05:28:58;;;;;;;2.13;1.55;;;9.00;99.90;;;;;;5105131;28;21805;-79
2023/05/01 05:31:25;;;;;;;1.52;1.10;;;9.00;99.90;;;;;;5108161;28;20047;-80
2023/05/01 05:33:53;;;;;;;8.73;1.17;;;8.90;99.90;;;;;;5091618;27;20047;-79
2023/05/01 05:36:20;;;;;;;1.30;1.08;;;8.80;99.90;;;;;;5097534;28;20514;-79
2023/05/01 05:38:49;;;;;;;1.40;1.30;;;8.80;99.90;;;;;;5108175;28;20048;-81
2023/05/01 05:41:19;;;;;;;1.55;1.10;;;9.00;99.90;;;;;;5084390;28;20048;-80
2023/05/01 05:43:50;;;;;;;1.17;1.10;;;9.00;99.90;;;;;;5108324;28;20063;-82
2023/05/01 05:46:17;;;;;;;1.52;1.00;;;9.30;99.90;;;;;;5117873;27;20054;-81
2023/05/01 05:48:44;;;;;;;2.47;1.10;;;9.70;99.90;;;;;;5113119;27;20043;-81
2023/05/01 05:51:12;;;;;;;1.38;1.27;;;10.30;99.90;;;;;;5093245;28;20089;-83
2023/05/01 05:53:40;;;;;;;1.10;1.00;;;10.60;99.90;;;;;;5093078;28;20133;-81
2023/05/01 05:56:07;;;;;;;1.55;1.45;;;10.50;99.90;;;;;;5072184;28;20090;-82
2023/05/01 05:58:35;;;;;;;1.00;0.77;;;10.20;99.90;;;;;;5099346;27;20620;-82
2023/05/01 06:01:05;;;;;;;1.10;0.95;;;10.00;99.90;;;;;;5126776;27;20477;-82
2023/05/01 06:03:35;;;;;;;2.33;1.00;;;10.60;99.90;;;;;;5092220;28;20100;-79
2023/05/01 06:06:03;;;;;;;2.85;1.13;;;10.90;99.90;;;;;;5107351;28;20126;-79
2023/05/01 06:08:31;;;;;;;1.67;1.20;;;11.10;99.90;;;;;;5110375;28;20484;-79
2023/05/01 06:10:58;;;;;;;1.63;1.52;;;11.10;99.90;;;;;;5099472;28;20050;-77
2023/05/01 06:13:27;;;;;;;1.52;0.77;;;11.50;99.90;;;;;;5118427;27;20035;-79
2023/05/01 06:15:54;;;;;;;1.05;0.95;;;12.20;99.90;;;;;;5101107;28;20078;-80
2023/05/01 06:18:23;;;;;;;1.88;0.80;;;12.70;99.90;;;;;;5098682;28;20050;-79
2023/05/01 06:20:51;;;;;;;1.60;0.77;;;12.60;99.90;;;;;;5100406;28;20455;-81
2023/05/01 06:23:18;;;;;;;1.27;1.17;;;12.60;99.90;;;;;;5107085;28;20036;-79
2023/05/01 06:26:12;;;;;;;1.77;1.20;;;12.60;99.90;;;;;;5095158;28;20040;-79
2023/05/01 06:28:40;;;;;;;0.73;0.73;;;12.60;99.90;;;;;;5083450;28;20369;-80
2023/05/01 06:31:09;;;;;;;4.03;1.33;;;12.90;99.90;;;;;;5099572;28;20126;-79
2023/05/01 06:33:43;;;;;;;1.45;1.15;;;13.40;99.90;;;;;;5101812;28;20097;-80
2023/05/01 06:36:20;;;;;;;1.48;0.68;;;14.20;98.60;;;;;;5084505;28;20043;-81
2023/05/01 06:38:48;;;;;;;2.08;0.80;;;14.80;95.50;;;;;;5103290;28;20055;-82
2023/05/01 06:41:16;;;;;;;5.50;1.30;;;15.30;92.20;;;;;;5104101;28;20043;-79
2023/05/01 06:43:46;;;;;;;1.27;0.82;;;15.50;88.30;;;;;;5104589;28;20426;-76
2023/05/01 06:46:17;;;;;;;2.47;0.93;;;15.70;86.00;;;;;;5105456;27;20101;-76
2023/05/01 06:48:46;;;;;;;1.05;0.80;;;16.10;84.30;;;;;;5104100;28;20109;-77
2023/05/01 06:51:15;;;;;;;3.20;1.35;;;16.80;83.20;;;;;;5101068;28;20067;-77
2023/05/01 06:53:44;;;;;;;2.22;0.98;;;16.90;78.40;;;;;;5089308;28;20056;-77
2023/05/01 06:56:12;;;;;;;6.43;1.70;;;15.80;75.60;;;;;;5078816;28;20051;-78
2023/05/01 06:58:40;;;;;;;5.70;1.30;;;15.00;82.10;;;;;;5096257;28;20044;-78
2023/05/01 07:01:09;;;;;;;1.80;1.52;;;15.50;84.80;;;;;;5097593;28;20144;-75
2023/05/01 07:03:36;;;;;;;3.45;1.00;;;15.90;82.50;;;;;;5095148;28;20047;-76
2023/05/01 07:06:05;;;;;;;1.77;1.40;;;15.80;84.20;;;;;;5100339;28;20043;-75
2023/05/01 07:08:32;;;;;;;1.65;1.10;;;16.10;84.20;;;;;;5099974;28;20481;-76
2023/05/01 07:11:00;;;;;;;2.10;1.13;;;16.70;83.10;;;;;;5106096;28;20044;-75
2023/05/01 07:13:27;;;;;;;1.30;1.20;;;17.20;80.40;;;;;;5079054;28;20043;-76
2023/05/01 07:15:54;;;;;;;4.07;0.90;;;17.60;78.10;;;;;;5109942;28;20075;-75
2023/05/01 07:18:22;;;;;;;1.95;1.08;;;17.60;74.60;;;;;;5109236;28;20138;-76
2023/05/01 07:20:49;;;;;;;2.20;0.88;;;17.90;74.10;;;;;;5111863;28;20051;-75
2023/05/01 07:23:18;;;;;;;3.22;1.05;;;18.30;72.50;;;;;;5110330;28;20051;-72
2023/05/01 07:25:46;;;;;;;3.72;1.10;;;18.50;70.80;;;;;;5109268;27;20052;-75
2023/05/01 07:28:13;;;;;;;4.88;1.20;;;18.60;71.00;;;;;;5104521;28;20125;-75
2023/05/01 07:30:41;;;;;;;1.40;1.00;;;18.90;69.40;;;;;;5107635;28;20165;-74
2023/05/01 07:33:08;;;;;;;1.98;1.02;;;19.10;66.90;;;;;;5101904;28;20479;-75
2023/05/01 07:35:36;;;;;;;6.00;1.90;;;19.30;67.10;;;;;;5094592;28;20055;-74
2023/05/01 07:38:03;;;;;;;2.85;1.63;;;19.70;63.80;;;;;;5104038;28;20043;-76
2023/05/01 07:40:35;;;;;;;3.08;1.30;;;19.80;61.70;;;;;;5114233;28;20048;-77
2023/05/01 07:43:03;;;;;;;2.38;0.88;;;19.70;63.40;;;;;;5103409;28;20048;-74
2023/05/01 07:45:30;;;;;;;2.45;0.90;;;19.80;63.30;;;;;;5092584;28;20040;-76
2023/05/01 07:47:57;;;;;;;1.08;0.98;;;20.20;60.80;;;;;;5111417;28;20048;-78
2023/05/01 07:50:25;;;;;;;1.13;0.90;;;20.30;59.00;;;;;;5108479;28;20111;-77
2023/05/01 07:52:52;;;;;;;3.10;0.90;;;20.50;55.90;;;;;;5107192;28;20043;-76
2023/05/01 07:55:21;;;;;;;2.47;0.80;;;20.60;55.50;;;;;;5111824;28;20071;-76
2023/05/01 07:57:53;;;;;;;2.65;0.63;;;20.40;53.40;;;;;;5112189;28;20052;-77
2023/05/01 08:00:21;;;;;;;0.90;0.53;;;20.30;52.90;;;;;;5102412;28;20054;-76
2023/05/01 08:02:48;;;;;;;1.05;0.73;;;20.50;51.40;;;;;;5102622;28;20134;-76
2023/05/01 08:05:16;;;;;;;2.78;0.70;;;20.60;51.30;;;;;;5103969;28;20120;-77
2023/05/01 08:07:43;;;;;;;0.95;0.50;;;21.10;50.00;;;;;;5102689;28;20054;-77
2023/05/01 08:10:11;;;;;;;4.45;0.60;;;21.20;49.50;;;;;;5105115;28;20048;-77
2023/05/01 08:12:40;;;;;;;2.45;1.00;;;21.00;48.20;;;;;;5103640;28;20546;-77
2023/05/01 08:15:10;;;;;;;4.82;1.10;;;21.00;49.20;;;;;;5104724;27;20503;-76
2023/05/01 08:17:38;;;;;;;4.28;0.90;;;21.20;50.50;;;;;;5104968;28;20124;-76
2023/05/01 08:20:07;;;;;;;3.83;0.65;;;21.50;48.50;;;;;;5107455;28;20039;-75
2023/05/01 08:22:34;;;;;;;1.55;0.70;;;21.60;48.40;;;;;;5102536;28;20075;-76
2023/05/01 08:25:03;;;;;;;1.08;0.80;;;21.90;47.70;;;;;;5104461;27;20142;-76
2023/05/01 08:27:32;;;;;;;2.50;0.68;;;22.10;46.10;;;;;;5107376;28;20081;-74
2023/05/01 08:30:00;;;;;;;0.88;0.75;;;22.30;45.60;;;;;;5108797;28;20047;-74
2023/05/01 08:32:29;;;;;;;1.60;1.17;;;22.10;46.10;;;;;;5105866;28;20052;-75
2023/05/01 08:34:56;;;;;;;3.75;0.90;;;22.20;45.50;;;;;;5104745;28;20594;-74
2023/05/01 08:37:23;;;;;;;1.75;0.80;;;22.30;46.10;;;;;;5108770;28;20040;-73
2023/05/01 08:39:51;;;;;;;1.50;0.77;;;22.60;45.90;;;;;;5108993;28;20569;-73
2023/05/01 08:42:19;;;;;;;2.17;0.75;;;22.90;45.30;;;;;;5103914;28;20108;-77
2023/05/01 08:44:47;;;;;;;2.70;0.70;;;23.10;44.80;;;;;;5099708;28;20317;-76
2023/05/01 08:47:16;;;;;;;3.83;3.55;;;23.10;44.10;;;;;;5108056;28;20055;-80
2023/05/01 08:49:50;;;;;;;1.85;0.85;;;23.10;44.40;;;;;;5108855;28;20043;-79
2023/05/01 08:52:22;;;;;;;2.33;0.80;;;23.00;44.60;;;;;;5110582;28;20058;-79
2023/05/01 08:54:53;;;;;;;3.70;0.80;;;23.20;44.70;;;;;;5110487;28;20043;-78
2023/05/01 08:57:21;;;;;;;1.45;0.85;;;23.30;44.90;;;;;;5109509;28;20376;-80
2023/05/01 08:59:52;;;;;;;10.25;1.50;;;23.60;44.80;;;;;;5091744;28;20040;-79
2023/05/01 09:02:21;;;;;;;2.60;1.00;;;23.90;44.30;;;;;;5096360;28;20476;-79
2023/05/01 09:04:52;;;;;;;3.35;2.13;;;24.10;44.30;;;;;;5112109;28;20054;-80
2023/05/01 09:07:19;;;;;;;5.22;1.35;;;24.20;44.40;;;;;;5110274;28;20071;-79
2023/05/01 09:09:46;;;;;;;2.80;1.02;;;24.40;44.30;;;;;;5112575;28;20044;-80
2023/05/01 09:12:25;;;;;;;3.80;1.05;;;24.40;44.40;;;;;;5110675;28;20051;-80
2023/05/01 09:14:54;;;;;;;3.45;0.80;;;24.30;44.90;;;;;;5111959;28;20044;-80
2023/05/01 09:17:22;;;;;;;6.28;1.15;;;24.40;45.30;;;;;;5111660;28;20039;-79
2023/05/01 09:19:52;;;;;;;1.88;1.00;;;24.70;44.90;;;;;;5094034;28;20055;-79
2023/05/01 09:22:20;;;;;;;1.10;0.90;;;24.90;44.10;;;;;;5110665;28;20047;-80
2023/05/01 09:24:47;;;;;;;1.75;0.90;;;24.70;44.20;;;;;;5112093;28;20098;-79
2023/05/01 09:27:15;;;;;;;1.48;0.70;;;24.50;44.20;;;;;;5111961;28;20545;-79
2023/05/01 09:29:44;;;;;;;4.95;1.10;;;24.20;44.80;;;;;;5111085;28;20113;-78
2023/05/01 09:32:16;;;;;;;2.00;1.08;;;24.20;44.80;;;;;;5111422;28;20040;-78
2023/05/01 09:34:44;;;;;;;3.47;1.05;;;24.10;45.30;;;;;;5111713;28;20055;-79
2023/05/01 09:37:27;;;;;;;2.10;0.95;;;24.10;45.60;;;;;;5111571;28;20067;-78
2023/05/01 09:40:07;;;;;;;3.50;1.00;;;24.10;45.90;;;;;;5094140;28;20055;-79
2023/05/01 09:42:36;;;;;;;2.28;1.02;;;24.20;45.20;;;;;;5111339;28;20040;-79
2023/05/01 09:45:06;;;;;;;4.30;1.30;;;23.80;45.60;;;;;;5112279;28;20488;-79
2023/05/01 09:50:35;;;;;;;1.10;0.70;;;24.20;44.60;;;;;;5065829;28;20096;-79
2023/05/01 09:53:07;;;;;;;3.85;0.65;;;24.30;43.40;;;;;;5108832;28;20403;-78
2023/05/01 09:55:37;;;;;;;3.80;1.13;;;24.50;42.80;;;;;;5111043;28;20047;-79
2023/05/01 09:58:07;;;;;;;4.05;1.20;;;24.40;43.20;;;;;;5111754;28;20067;-77
2023/05/01 10:00:47;;;;;;;2.55;0.52;;;24.20;43.90;;;;;;5111881;28;20047;-78
2023/05/01 10:03:16;;;;;;;1.33;0.80;;;24.30;43.10;;;;;;5103424;28;20055;-80
2023/05/01 10:05:49;;;;;;;5.00;0.88;;;24.40;43.10;;;;;;5110689;28;20044;-79
2023/05/01 10:08:23;;;;;;;;;;;24.70;42.20;;;;;;5111194;28;20047;-79
2023/05/01 10:11:03;;;;;;;2.83;0.77;;;24.70;42.70;;;;;;5110795;28;19923;-79
2023/05/01 10:13:30;;;;;;;0.57;0.20;;;24.90;42.40;;;;;;5111739;28;20058;-78
2023/05/01 10:16:00;;;;;;;0.80;0.63;;;24.70;40.80;;;;;;5112185;28;20408;-78
2023/05/01 10:18:30;;;;;;;2.50;1.00;;;25.00;39.60;;;;;;5111382;28;20154;-78
2023/05/01 10:20:57;;;;;;;2.25;0.80;;;25.00;39.60;;;;;;5110695;28;20060;-79
2023/05/01 10:23:27;;;;;;;5.15;0.57;;;25.20;40.80;;;;;;5111514;27;20047;-79
2023/05/01 10:25:55;;;;;;;1.60;0.50;;;25.50;39.60;;;;;;5111880;28;20120;-79
2023/05/01 10:28:24;;;;;;;8.43;1.08;;;25.40;38.60;;;;;;5109752;28;20039;-79
2023/05/01 10:30:52;;;;;;;3.70;0.50;;;25.20;37.90;;;;;;5110523;28;20508;-80
2023/05/01 10:33:20;;;;;;;2.40;0.75;;;24.90;39.00;;;;;;5093366;28;20051;-80
2023/05/01 10:35:54;;;;;;;1.95;0.50;;;24.90;39.70;;;;;;5111382;28;20054;-80
2023/05/01 10:38:26;;;;;;;2.00;0.88;;;25.20;38.20;;;;;;5091421;28;20054;-81
2023/05/01 10:40:55;;;;;;;6.35;0.40;;;25.50;38.20;;;;;;5110502;28;20051;-80
2023/05/01 10:43:27;;;;;;;1.23;0.60;;;25.50;37.50;;;;;;5111119;28;20051;-79
2023/05/01 10:46:28;;;;;;;0.68;0.30;;;25.70;37.90;;;;;;5111176;28;20092;-79
2023/05/01 10:48:59;;;;;;;3.40;0.35;;;25.50;39.00;;;;;;5107251;28;20075;-80
2023/05/01 10:51:27;;;;;;;6.63;0.70;;;25.20;37.70;;;;;;5111296;28;20060;-78
2023/05/01 10:54:24;;;;;;;4.63;0.40;;;25.00;37.80;;;;;;5110625;28;20484;-79
2023/05/01 10:56:54;;;;;;;5.28;0.40;;;24.90;38.40;;;;;;5110447;28;20040;-79
2023/05/01 10:59:22;;;;;;;2.75;1.20;;;24.70;37.80;;;;;;5111712;28;20058;-80
2023/05/01 11:01:51;;;;;;;13.15;1.20;;;25.10;37.80;;;;;;5110653;28;20047;-79
2023/05/01 11:04:50;;;;;;;8.20;0.73;;;25.20;36.50;;;;;;5109511;28;20044;-80
2023/05/01 11:07:18;;;;;;;4.07;0.93;;;25.40;36.20;;;;;;5071282;28;20044;-82
2023/05/01 11:09:47;;;;;;;0.95;0.40;;;24.90;35.90;;;;;;5111425;28;20048;-80
2023/05/01 11:12:52;;;;;;;2.85;0.30;;;24.50;36.80;;;;;;5109882;28;20036;-80
2023/05/01 11:15:27;;;;;;;1.80;0.60;;;24.70;37.60;;;;;;5110956;28;20377;-80
2023/05/01 11:17:55;;;;;;;5.57;0.60;;;25.20;37.10;;;;;;5102539;28;20043;-80
2023/05/01 11:20:51;;;;;;;5.07;0.52;;;25.40;36.70;;;;;;5120883;28;20088;-80
2023/05/01 11:23:20;;;;;;;5.70;0.70;;;25.80;37.70;;;;;;5122157;28;20052;-79
2023/05/01 11:25:49;;;;;;;3.33;0.60;;;26.20;37.70;;;;;;5121466;28;20052;-81
2023/05/01 11:28:22;;;;;;;7.43;1.52;;;26.40;37.00;;;;;;5113427;28;20044;-79
2023/05/01 11:30:49;;;;;;;1.75;1.00;;;26.60;36.10;;;;;;5119403;28;20503;-77
2023/05/01 11:33:25;;;;;;;2.75;0.77;;;26.60;36.90;;;;;;5112646;28;20472;-76
2023/05/01 11:36:03;;;;;;;5.40;0.80;;;26.10;37.30;;;;;;5102115;28;20063;-79
2023/05/01 11:38:31;;;;;;;7.93;0.70;;;25.60;38.10;;;;;;5101887;28;20423;-78
2023/05/01 11:41:02;;;;;;;1.60;0.40;;;25.60;38.00;;;;;;5083513;28;20539;-79
2023/05/01 11:43:50;;;;;;;3.30;0.60;;;25.70;37.40;;;;;;5092339;28;20048;-81
2023/05/01 11:46:24;;;;;;;5.35;0.85;;;25.30;38.10;;;;;;5099486;28;20593;-80
2023/05/01 11:48:52;;;;;;;2.08;0.35;;;25.40;38.00;;;;;;5084038;28;20047;-83
2023/05/01 11:51:19;;;;;;;2.22;0.45;;;25.60;37.20;;;;;;5105659;28;20054;-81
2023/05/01 11:53:59;;;;;;;4.35;0.38;;;25.80;36.90;;;;;;5102068;28;20051;-81
2023/05/01 11:56:31;;;;;;;1.50;0.30;;;25.80;37.10;;;;;;5103171;28;20051;-81
2023/05/01 11:59:15;;;;;;;2.30;0.60;;;25.80;36.90;;;;;;5088272;28;20058;-83
2023/05/01 12:01:49;;;;;;;1.75;0.50;;;26.30;37.70;;;;;;5106269;28;20126;-81
2023/05/01 12:04:24;;;;;;;2.20;0.82;;;26.50;36.80;;;;;;5086889;28;20132;-83
2023/05/01 12:06:59;;;;;;;3.97;0.60;;;26.10;37.70;;;;;;5102267;28;20047;-80
2023/05/01 12:09:27;;;;;;;2.67;0.60;;;26.30;37.70;;;;;;5108612;28;20142;-81
2023/05/01 12:12:02;;;;;;;1.67;0.47;;;26.50;38.30;;;;;;5103330;28;20040;-83
2023/05/01 12:14:35;;;;;;;1.92;0.50;;;26.70;38.30;;;;;;5102507;28;20135;-81
2023/05/01 12:17:04;;;;;;;2.17;0.38;;;27.10;38.30;;;;;;5107336;28;20044;-79
2023/05/01 12:19:32;;;;;;;2.00;0.77;;;27.30;37.10;;;;;;5108281;28;20043;-82
2023/05/01 12:22:14;;;;;;;1.75;0.73;;;27.30;37.50;;;;;;5106892;28;20095;-83
2023/05/01 12:24:50;;;;;;;3.10;0.77;;;27.20;37.10;;;;;;5108479;28;20424;-85
2023/05/01 12:27:20;;;;;;;1.52;0.50;;;27.30;37.10;;;;;;5106368;28;20405;-80
2023/05/01 12:29:49;;;;;;;2.08;0.52;;;27.20;36.90;;;;;;5100786;28;20330;-84
2023/05/01 12:32:17;;;;;;;3.25;0.52;;;27.20;37.20;;;;;;5112452;28;20549;-85
2023/05/01 12:34:45;;;;;;;2.30;0.47;;;27.30;36.20;;;;;;5095429;28;20063;-83
2023/05/01 12:37:13;;;;;;;2.45;1.17;;;27.40;36.20;;;;;;5106748;28;20039;-84
2023/05/01 12:39:43;;;;;;;1.35;0.50;;;26.90;36.10;;;;;;5088506;28;20048;-87
2023/05/01 12:42:15;;;;;;;2.10;0.47;;;26.50;36.00;;;;;;5103528;28;20044;-87
2023/05/01 12:44:44;;;;;;;1.85;0.35;;;26.30;35.90;;;;;;5089617;28;20607;-85
2023/05/01 12:47:13;;;;;;;1.45;0.50;;;26.30;36.70;;;;;;5105133;28;20142;-80
2023/05/01 12:49:41;;;;;;;0.88;0.50;;;26.60;36.80;;;;;;5108088;28;20074;-82
2023/05/01 12:52:09;;;;;;;2.55;0.80;;;26.90;35.90;;;;;;5103849;27;20202;-82
2023/05/01 12:54:39;;;;;;;4.18;0.70;;;27.00;35.70;;;;;;5075130;28;20147;-82
2023/05/01 12:57:09;;;;;;;3.00;0.60;;;27.10;36.00;;;;;;5098733;27;20139;-83
2023/05/01 12:59:37;;;;;;;3.92;2.95;;;27.10;35.70;;;;;;5088487;28;20437;-81
2023/05/01 13:02:06;;;;;;;5.22;4.20;;;27.20;35.10;;;;;;5095639;28;20040;-82
2023/05/01 13:04:35;;;;;;;6.75;0.80;;;27.00;35.70;;;;;;5109910;28;20051;-82
2023/05/01 13:07:10;;;;;;;2.65;0.93;;;27.10;34.70;;;;;;5093918;28;20128;-84
2023/05/01 13:09:39;;;;;;;3.30;0.50;;;26.70;36.10;;;;;;5095977;28;20049;-81
2023/05/01 13:12:08;;;;;;;1.00;0.90;;;26.60;35.50;;;;;;5096845;27;20503;-81
2023/05/01 13:14:48;;;;;;;4.45;0.98;;;26.90;34.80;;;;;;5119430;28;20044;-82